Time;durP1;ratioP1;P1;durP2;ratioP2;P2;SDS_P1;SDS_P2;PMS_P1;PMS_P2;Temp;Humidity;BMP_temperature;BMP_pressure;BME280_temperature;BME280_humidity;BME280_pressure;Samples;Min_cycle;Max_cycle;Signal;HPM_P1;HPM_P2
2023/07/03 00:01:07;;;;;;;3.30;2.22;;;;;;;;;;5093753;28;20277;-44
2023/07/03 00:03:51;;;;;;;4.97;2.40;;;;;;;;;;5093829;28;20195;-45
2023/07/03 00:06:19;;;;;;;3.85;2.10;;;;;;;;;;5093537;28;20198;-44
2023/07/03 00:08:46;;;;;;;2.78;2.00;;;;;;;;;;5093429;28;20223;-44
2023/07/03 00:11:13;;;;;;;3.35;2.53;;;;;;;;;;5093891;28;20210;-44
2023/07/03 00:13:41;;;;;;;3.40;2.22;;;;;;;;;;5093601;28;20198;-44
2023/07/03 00:16:08;;;;;;;2.53;2.22;;;;;;;;;;5093508;28;20199;-43
2023/07/03 00:18:35;;;;;;;3.13;2.17;;;;;;;;;;5093310;28;20207;-44
2023/07/03 00:21:02;;;;;;;2.92;2.30;;;;;;;;;;5093279;28;20202;-43
2023/07/03 00:23:29;;;;;;;2.20;2.00;;;;;;;;;;5093870;28;20226;-44
2023/07/03 00:25:56;;;;;;;4.25;2.30;;;;;;;;;;5093528;28;20244;-44
2023/07/03 00:28:24;;;;;;;4.47;2.70;;;;;;;;;;5093253;28;20238;-44
2023/07/03 00:30:51;;;;;;;3.00;2.67;;;;;;;;;;5093345;28;20711;-44
2023/07/03 00:33:18;;;;;;;5.38;2.30;;;;;;;;;;5093308;28;20214;-44
2023/07/03 00:35:45;;;;;;;2.95;2.42;;;;;;;;;;5093153;28;20723;-44
2023/07/03 00:38:12;;;;;;;2.33;2.00;;;;;;;;;;5093436;28;20210;-43
2023/07/03 00:40:39;;;;;;;8.30;2.38;;;;;;;;;;5093400;28;20290;-45
2023/07/03 00:43:07;;;;;;;5.55;2.45;;;;;;;;;;5075520;28;20272;-43
2023/07/03 00:45:34;;;;;;;3.85;2.80;;;;;;;;;;5092093;28;20213;-43
2023/07/03 00:48:01;;;;;;;6.40;2.58;;;;;;;;;;5075107;28;20233;-44
2023/07/03 00:50:29;;;;;;;3.40;2.50;;;;;;;;;;5093661;28;20198;-44
2023/07/03 00:53:01;;;;;;;4.70;2.45;;;;;;;;;;5093302;28;20210;-44
2023/07/03 00:55:31;;;;;;;3.05;2.33;;;;;;;;;;5076119;28;20214;-43
2023/07/03 00:57:58;;;;;;;4.53;2.50;;;;;;;;;;5091850;28;20671;-44
2023/07/03 01:00:32;;;;;;;5.43;2.72;;;;;;;;;;5093129;28;20226;-44
2023/07/03 01:03:08;;;;;;;6.65;2.50;;;;;;;;;;5092357;28;20202;-45
2023/07/03 01:05:40;;;;;;;4.00;2.50;;;;;;;;;;5091716;28;20229;-46
2023/07/03 01:08:09;;;;;;;3.38;2.30;;;;;;;;;;5091833;28;20230;-45
2023/07/03 01:10:37;;;;;;;3.08;2.15;;;;;;;;;;5092030;28;20229;-45
2023/07/03 01:13:06;;;;;;;4.93;2.60;;;;;;;;;;5091602;28;20210;-45
2023/07/03 01:15:37;;;;;;;4.18;2.33;;;;;;;;;;5093274;28;20285;-44
2023/07/03 01:18:05;;;;;;;3.45;2.50;;;;;;;;;;5078962;28;20214;-45
2023/07/03 01:20:40;;;;;;;3.78;2.42;;;;;;;;;;5095431;28;20198;-44
2023/07/03 01:23:19;;;;;;;4.47;2.30;;;;;;;;;;5078671;28;20195;-45
2023/07/03 01:25:48;;;;;;;2.78;2.40;;;;;;;;;;5096397;28;20214;-45
2023/07/03 01:28:18;;;;;;;2.97;2.22;;;;;;;;;;5078696;28;20218;-44
2023/07/03 01:30:46;;;;;;;2.50;2.00;;;;;;;;;;5078187;28;20289;-45
2023/07/03 01:33:17;;;;;;;5.43;2.80;;;;;;;;;;5094885;28;20620;-44
2023/07/03 01:35:48;;;;;;;4.32;2.50;;;;;;;;;;5094751;28;20620;-44
2023/07/03 01:38:18;;;;;;;3.15;2.35;;;;;;;;;;5078565;28;20202;-45
2023/07/03 01:40:44;;;;;;;3.33;2.40;;;;;;;;;;5094954;28;20289;-44
2023/07/03 01:43:12;;;;;;;3.83;2.38;;;;;;;;;;5094740;28;20207;-44
2023/07/03 01:45:41;;;;;;;3.88;2.60;;;;;;;;;;5094946;28;20662;-45
2023/07/03 01:48:09;;;;;;;5.65;2.47;;;;;;;;;;5095718;28;20222;-44
2023/07/03 01:50:37;;;;;;;3.90;2.60;;;;;;;;;;5095634;28;20199;-43
2023/07/03 01:53:16;;;;;;;2.70;2.15;;;;;;;;;;5094659;28;20214;-46
2023/07/03 01:55:46;;;;;;;3.20;2.35;;;;;;;;;;5094659;28;20273;-43
2023/07/03 01:58:29;;;;;;;4.32;2.83;;;;;;;;;;5095475;28;20210;-45
2023/07/03 02:01:00;;;;;;;4.47;3.13;;;;;;;;;;5094304;28;20213;-44
2023/07/03 02:03:31;;;;;;;5.78;2.60;;;;;;;;;;5078109;28;20202;-44
2023/07/03 02:06:01;;;;;;;4.93;2.58;;;;;;;;;;5094196;28;20199;-44
2023/07/03 02:08:29;;;;;;;2.97;2.65;;;;;;;;;;5077137;28;20231;-45
2023/07/03 02:10:56;;;;;;;4.05;2.95;;;;;;;;;;5094524;28;20233;-44
2023/07/03 02:13:24;;;;;;;3.58;2.92;;;;;;;;;;5095151;28;20733;-45
2023/07/03 02:15:53;;;;;;;8.63;2.58;;;;;;;;;;5093921;28;20206;-44
2023/07/03 02:18:20;;;;;;;3.42;2.22;;;;;;;;;;5094136;28;20202;-44
2023/07/03 02:20:49;;;;;;;5.72;3.28;;;;;;;;;;5093844;28;20620;-44
2023/07/03 02:23:17;;;;;;;8.43;2.63;;;;;;;;;;5093747;28;20234;-45
2023/07/03 02:25:45;;;;;;;4.20;2.72;;;;;;;;;;5094994;28;20209;-45
2023/07/03 02:28:13;;;;;;;4.55;2.70;;;;;;;;;;5093697;28;20206;-44
2023/07/03 02:30:40;;;;;;;2.70;2.25;;;;;;;;;;5094936;28;20234;-44
2023/07/03 02:33:10;;;;;;;4.53;2.78;;;;;;;;;;5092946;28;20194;-44
2023/07/03 02:35:41;;;;;;;4.70;3.13;;;;;;;;;;5094835;28;20230;-44
2023/07/03 02:38:10;;;;;;;3.78;2.88;;;;;;;;;;5095097;28;20217;-45
2023/07/03 02:40:39;;;;;;;6.32;2.78;;;;;;;;;;5095414;28;20626;-44
2023/07/03 02:43:06;;;;;;;4.30;2.70;;;;;;;;;;5094768;28;20596;-44
2023/07/03 02:45:41;;;;;;;9.68;3.17;;;;;;;;;;5094093;28;20252;-44
2023/07/03 02:48:11;;;;;;;4.75;2.92;;;;;;;;;;5093481;28;20198;-44
2023/07/03 02:50:43;;;;;;;4.30;2.58;;;;;;;;;;5094687;28;20708;-45
2023/07/03 02:53:10;;;;;;;4.15;2.65;;;;;;;;;;5093419;28;20288;-45
2023/07/03 02:55:39;;;;;;;5.45;2.63;;;;;;;;;;5093496;28;20206;-44
2023/07/03 02:58:06;;;;;;;3.55;2.85;;;;;;;;;;5093410;28;20736;-45
2023/07/03 03:00:36;;;;;;;3.97;3.00;;;;;;;;;;5093555;28;20230;-44
2023/07/03 03:03:03;;;;;;;6.13;3.10;;;;;;;;;;5093589;28;20198;-44
2023/07/03 03:05:30;;;;;;;4.57;3.03;;;;;;;;;;5093449;28;20268;-44
2023/07/03 03:07:58;;;;;;;7.00;2.55;;;;;;;;;;5093570;28;20199;-46
2023/07/03 03:10:25;;;;;;;6.70;3.10;;;;;;;;;;5094254;28;20218;-44
2023/07/03 03:12:53;;;;;;;4.47;2.90;;;;;;;;;;5094499;28;20194;-44
2023/07/03 03:15:20;;;;;;;9.30;2.92;;;;;;;;;;5093068;28;20207;-43
2023/07/03 03:17:47;;;;;;;4.50;2.85;;;;;;;;;;5093145;28;20202;-45
2023/07/03 03:20:14;;;;;;;4.28;2.90;;;;;;;;;;5093013;28;20214;-46
2023/07/03 03:22:42;;;;;;;3.78;3.05;;;;;;;;;;5093063;28;20208;-45
2023/07/03 03:25:09;;;;;;;4.80;2.67;;;;;;;;;;5093110;28;20246;-44
2023/07/03 03:27:36;;;;;;;3.85;2.92;;;;;;;;;;5093113;28;20607;-44
2023/07/03 03:30:03;;;;;;;4.03;3.10;;;;;;;;;;5092906;28;20229;-45
2023/07/03 03:32:35;;;;;;;4.70;3.00;;;;;;;;;;5092905;28;20199;-44
2023/07/03 03:35:02;;;;;;;4.90;2.60;;;;;;;;;;5094290;28;20205;-45
2023/07/03 03:37:29;;;;;;;3.38;2.85;;;;;;;;;;5093050;28;20257;-44
2023/07/03 03:39:59;;;;;;;6.35;2.92;;;;;;;;;;5092467;28;20716;-44
2023/07/03 03:42:26;;;;;;;4.95;3.15;;;;;;;;;;5092888;28;20202;-45
2023/07/03 03:44:53;;;;;;;3.83;2.50;;;;;;;;;;5093823;28;20718;-45
2023/07/03 03:47:22;;;;;;;4.47;3.08;;;;;;;;;;5076064;28;20203;-44
2023/07/03 03:49:51;;;;;;;3.92;3.08;;;;;;;;;;5092761;28;20226;-46
2023/07/03 03:52:18;;;;;;;3.53;2.58;;;;;;;;;;5092948;28;20549;-44
2023/07/03 03:54:47;;;;;;;3.40;2.67;;;;;;;;;;5092559;28;20207;-44
2023/07/03 03:57:14;;;;;;;3.78;2.65;;;;;;;;;;5092434;28;20233;-44
2023/07/03 03:59:41;;;;;;;6.93;3.10;;;;;;;;;;5093657;28;20223;-45
2023/07/03 04:02:09;;;;;;;5.15;3.00;;;;;;;;;;5092676;28;20290;-45
2023/07/03 04:04:36;;;;;;;7.65;3.25;;;;;;;;;;5093724;28;20251;-44
2023/07/03 04:07:04;;;;;;;4.32;2.60;;;;;;;;;;5093470;28;20206;-44
2023/07/03 04:09:31;;;;;;;4.28;2.95;;;;;;;;;;5093372;28;20222;-45
2023/07/03 04:11:58;;;;;;;4.75;3.22;;;;;;;;;;5093585;28;20198;-45
2023/07/03 04:14:25;;;;;;;3.67;2.83;;;;;;;;;;5093366;28;20900;-44
2023/07/03 04:16:53;;;;;;;3.97;2.97;;;;;;;;;;5093434;28;20209;-45
2023/07/03 04:19:23;;;;;;;3.45;2.67;;;;;;;;;;5093635;28;20208;-44
2023/07/03 04:21:50;;;;;;;5.43;2.78;;;;;;;;;;5093505;28;20567;-44
2023/07/03 04:24:18;;;;;;;7.05;3.17;;;;;;;;;;5093677;28;20230;-44
2023/07/03 04:26:45;;;;;;;6.57;3.08;;;;;;;;;;5093308;28;20651;-44
2023/07/03 04:29:13;;;;;;;5.03;3.40;;;;;;;;;;5093166;28;20229;-46
2023/07/03 04:31:40;;;;;;;5.70;3.08;;;;;;;;;;5092114;28;20202;-44
2023/07/03 04:34:07;;;;;;;5.65;3.08;;;;;;;;;;5093367;28;20211;-45
2023/07/03 04:36:34;;;;;;;4.22;2.97;;;;;;;;;;5093557;28;20195;-44
2023/07/03 04:39:01;;;;;;;4.63;2.88;;;;;;;;;;5092010;28;20701;-45
2023/07/03 04:41:28;;;;;;;5.55;3.17;;;;;;;;;;5093499;28;20230;-45
2023/07/03 04:43:58;;;;;;;8.95;3.40;;;;;;;;;;5093160;28;20203;-44
2023/07/03 04:46:26;;;;;;;6.32;3.33;;;;;;;;;;5092387;28;20195;-44
2023/07/03 04:49:04;;;;;;;4.68;3.30;;;;;;;;;;5093021;28;20651;-44
2023/07/03 04:51:32;;;;;;;5.32;3.60;;;;;;;;;;5095957;28;20190;-43
2023/07/03 04:54:00;;;;;;;11.68;3.40;;;;;;;;;;5096965;28;20203;-44
2023/07/03 04:56:28;;;;;;;6.55;3.65;;;;;;;;;;5096922;28;20205;-44
2023/07/03 04:58:55;;;;;;;7.03;3.00;;;;;;;;;;5097254;28;20199;-44
2023/07/03 05:01:24;;;;;;;5.90;3.63;;;;;;;;;;5097102;28;20226;-44
2023/07/03 05:03:51;;;;;;;5.57;3.42;;;;;;;;;;5096754;28;20564;-44
2023/07/03 05:06:18;;;;;;;3.80;3.22;;;;;;;;;;5096796;28;20293;-45
2023/07/03 05:08:46;;;;;;;11.32;3.58;;;;;;;;;;5096992;28;20202;-44
2023/07/03 05:11:13;;;;;;;8.88;3.78;;;;;;;;;;5096588;28;20540;-44
2023/07/03 05:13:41;;;;;;;6.43;3.42;;;;;;;;;;5096874;28;20203;-44
2023/07/03 05:16:08;;;;;;;5.47;3.40;;;;;;;;;;5096552;28;20260;-44
2023/07/03 05:18:35;;;;;;;5.18;3.15;;;;;;;;;;5096535;28;20206;-44
2023/07/03 05:21:03;;;;;;;5.65;3.47;;;;;;;;;;5096951;28;20679;-44
2023/07/03 05:23:30;;;;;;;10.82;3.70;;;;;;;;;;5096347;28;20279;-44
2023/07/03 05:25:57;;;;;;;7.00;3.35;;;;;;;;;;5096512;28;20198;-44
2023/07/03 05:28:25;;;;;;;4.70;3.25;;;;;;;;;;5096344;28;20682;-44
2023/07/03 05:30:54;;;;;;;5.00;3.40;;;;;;;;;;5096376;28;20248;-44
2023/07/03 05:33:21;;;;;;;5.75;3.63;;;;;;;;;;5096159;28;20706;-44
2023/07/03 05:35:48;;;;;;;4.72;2.83;;;;;;;;;;5096497;28;20205;-43
2023/07/03 05:38:18;;;;;;;7.38;3.65;;;;;;;;;;5096471;28;20203;-43
2023/07/03 05:40:46;;;;;;;8.40;3.38;;;;;;;;;;5096341;28;20252;-44
2023/07/03 05:43:13;;;;;;;7.60;3.45;;;;;;;;;;5096039;28;20566;-44
2023/07/03 05:45:41;;;;;;;5.13;3.10;;;;;;;;;;5095995;28;20671;-43
2023/07/03 05:48:09;;;;;;;5.45;3.25;;;;;;;;;;5096171;28;20206;-43
2023/07/03 05:50:36;;;;;;;10.30;3.17;;;;;;;;;;5095820;28;20229;-43
2023/07/03 05:53:03;;;;;;;7.50;3.42;;;;;;;;;;5095697;28;20199;-43
2023/07/03 05:55:30;;;;;;;6.45;3.05;;;;;;;;;;5096188;28;20289;-43
2023/07/03 05:57:57;;;;;;;5.63;3.33;;;;;;;;;;5095799;28;20195;-43
2023/07/03 06:00:25;;;;;;;7.43;3.47;;;;;;;;;;5095793;28;20199;-44
2023/07/03 06:02:54;;;;;;;6.97;3.53;;;;;;;;;;5095498;28;20603;-46
2023/07/03 06:05:21;;;;;;;6.80;3.33;;;;;;;;;;5095636;28;20796;-43
2023/07/03 06:07:49;;;;;;;10.05;4.55;;;;;;;;;;5095705;28;20576;-42
2023/07/03 06:10:16;;;;;;;35.08;11.63;;;;;;;;;;5095565;28;20683;-40
2023/07/03 06:12:43;;;;;;;12.75;5.63;;;;;;;;;;5095831;28;20199;-42
2023/07/03 06:15:11;;;;;;;9.75;4.28;;;;;;;;;;5095632;28;20199;-43
2023/07/03 06:17:40;;;;;;;10.65;4.15;;;;;;;;;;5095352;28;20203;-43
2023/07/03 06:20:08;;;;;;;14.00;4.35;;;;;;;;;;5095568;28;20207;-43
2023/07/03 06:22:35;;;;;;;10.68;4.55;;;;;;;;;;5095306;28;20560;-43
2023/07/03 06:25:02;;;;;;;17.42;7.20;;;;;;;;;;5095345;28;20227;-43
2023/07/03 06:27:30;;;;;;;8.85;4.35;;;;;;;;;;5095295;28;20202;-43
2023/07/03 06:29:57;;;;;;;7.45;4.07;;;;;;;;;;5095458;28;20226;-44
2023/07/03 06:32:24;;;;;;;7.65;3.47;;;;;;;;;;5095097;28;20198;-43
2023/07/03 06:34:51;;;;;;;8.57;4.13;;;;;;;;;;5095028;28;20202;-43
2023/07/03 06:37:18;;;;;;;11.00;4.88;;;;;;;;;;5095269;28;20195;-43
2023/07/03 06:39:45;;;;;;;15.27;6.05;;;;;;;;;;5094986;28;20217;-43
2023/07/03 06:42:13;;;;;;;11.23;3.88;;;;;;;;;;5095186;28;20199;-42
2023/07/03 06:44:43;;;;;;;11.30;4.75;;;;;;;;;;5094231;28;20195;-43
2023/07/03 06:47:10;;;;;;;6.75;3.60;;;;;;;;;;5095051;28;20244;-43
2023/07/03 06:49:37;;;;;;;12.13;5.10;;;;;;;;;;5094703;28;20289;-44
2023/07/03 06:52:05;;;;;;;9.15;3.50;;;;;;;;;;5094667;28;20679;-43
2023/07/03 06:54:32;;;;;;;9.82;3.47;;;;;;;;;;5094929;28;20226;-44
2023/07/03 06:57:00;;;;;;;6.93;3.58;;;;;;;;;;5094902;28;20240;-43
2023/07/03 06:59:27;;;;;;;10.93;3.40;;;;;;;;;;5094537;28;20195;-43
2023/07/03 07:01:54;;;;;;;9.35;3.97;;;;;;;;;;5094463;28;20244;-43
2023/07/03 07:04:21;;;;;;;7.97;3.30;;;;;;;;;;5094653;28;20631;-45
2023/07/03 07:06:49;;;;;;;11.30;4.13;;;;;;;;;;5094415;28;20202;-43
2023/07/03 07:09:17;;;;;;;10.35;3.00;;;;;;;;;;5094591;28;20203;-44
2023/07/03 07:11:46;;;;;;;8.55;3.13;;;;;;;;;;5094893;28;20203;-43
2023/07/03 07:14:14;;;;;;;9.07;3.80;;;;;;;;;;5093702;28;20199;-44
2023/07/03 07:16:42;;;;;;;7.65;2.97;;;;;;;;;;5094546;28;20259;-46
2023/07/03 07:19:10;;;;;;;7.15;3.65;;;;;;;;;;5094354;28;20244;-44
2023/07/03 07:21:41;;;;;;;5.75;3.22;;;;;;;;;;5094226;28;20206;-43
2023/07/03 07:24:14;;;;;;;7.78;3.53;;;;;;;;;;5094343;28;20241;-44
2023/07/03 07:26:41;;;;;;;8.73;3.50;;;;;;;;;;5094123;28;20191;-45
2023/07/03 07:29:08;;;;;;;7.18;3.15;;;;;;;;;;5093969;28;20293;-43
2023/07/03 07:31:39;;;;;;;6.63;3.17;;;;;;;;;;5093448;28;20834;-44
2023/07/03 07:34:10;;;;;;;5.85;3.10;;;;;;;;;;5093738;28;20651;-44
2023/07/03 07:36:38;;;;;;;7.20;3.15;;;;;;;;;;5094176;28;20199;-44
2023/07/03 07:39:05;;;;;;;9.75;3.47;;;;;;;;;;5093973;28;20226;-43
2023/07/03 07:41:33;;;;;;;8.40;3.20;;;;;;;;;;5094318;28;20203;-47
2023/07/03 07:44:00;;;;;;;5.82;3.13;;;;;;;;;;5094323;28;20248;-42
2023/07/03 07:46:30;;;;;;;5.65;3.45;;;;;;;;;;5093822;28;20210;-43
2023/07/03 07:48:58;;;;;;;8.00;3.38;;;;;;;;;;5093711;28;20199;-43
2023/07/03 07:51:26;;;;;;;5.05;3.10;;;;;;;;;;5093864;28;20234;-43
2023/07/03 07:53:55;;;;;;;5.90;3.25;;;;;;;;;;5093949;28;20198;-43
2023/07/03 07:56:23;;;;;;;7.57;3.47;;;;;;;;;;5093807;28;20198;-43
2023/07/03 07:58:50;;;;;;;5.93;3.58;;;;;;;;;;5093733;28;20202;-43
2023/07/03 08:01:17;;;;;;;7.38;3.25;;;;;;;;;;5093628;28;20213;-44
2023/07/03 08:03:45;;;;;;;8.63;3.60;;;;;;;;;;5093520;28;20206;-43
2023/07/03 08:06:13;;;;;;;4.97;3.10;;;;;;;;;;5093770;28;20248;-43
2023/07/03 08:08:40;;;;;;;8.48;3.38;;;;;;;;;;5093544;28;20538;-43
2023/07/03 08:11:09;;;;;;;11.35;3.67;;;;;;;;;;5093430;28;20280;-43
2023/07/03 08:13:38;;;;;;;6.82;3.42;;;;;;;;;;5093667;28;20650;-43
2023/07/03 08:16:07;;;;;;;7.45;3.65;;;;;;;;;;5093435;28;20263;-44
2023/07/03 08:18:34;;;;;;;7.95;3.67;;;;;;;;;;5092885;28;20199;-45
2023/07/03 08:21:02;;;;;;;6.93;3.50;;;;;;;;;;5093258;28;20210;-44
2023/07/03 08:23:32;;;;;;;10.00;3.88;;;;;;;;;;5092253;28;20314;-44
2023/07/03 08:26:00;;;;;;;9.68;3.92;;;;;;;;;;5095408;28;20206;-43
2023/07/03 08:28:28;;;;;;;10.02;3.67;;;;;;;;;;5097469;28;20194;-43
2023/07/03 08:30:57;;;;;;;8.43;3.35;;;;;;;;;;5097298;28;20734;-44
2023/07/03 08:33:25;;;;;;;9.23;4.28;;;;;;;;;;5097634;28;20289;-44
2023/07/03 08:35:53;;;;;;;11.45;4.28;;;;;;;;;;5097637;28;20205;-44
2023/07/03 08:38:23;;;;;;;9.10;4.57;;;;;;;;;;5097272;28;20248;-43
2023/07/03 08:40:56;;;;;;;9.60;4.05;;;;;;;;;;5097160;28;20675;-44
2023/07/03 08:43:29;;;;;;;9.38;4.55;;;;;;;;;;5097623;28;20198;-43
2023/07/03 08:45:57;;;;;;;7.60;4.10;;;;;;;;;;5096302;28;20233;-44
2023/07/03 08:48:25;;;;;;;8.48;4.13;;;;;;;;;;5097349;28;20202;-46
2023/07/03 08:50:57;;;;;;;10.45;4.53;;;;;;;;;;5095719;28;20691;-44
2023/07/03 08:53:29;;;;;;;8.15;4.22;;;;;;;;;;5096981;28;20201;-43
2023/07/03 08:56:00;;;;;;;7.60;3.70;;;;;;;;;;5096160;28;20214;-44
2023/07/03 08:58:27;;;;;;;8.05;4.03;;;;;;;;;;5096547;28;20233;-45
2023/07/03 09:01:14;;;;;;;9.35;4.72;;;;;;;;;;5096891;28;20206;-44
2023/07/03 09:03:53;;;;;;;8.60;4.07;;;;;;;;;;5096854;28;20206;-44
2023/07/03 09:06:33;;;;;;;12.40;4.22;;;;;;;;;;5097106;28;20195;-43
2023/07/03 09:09:11;;;;;;;10.52;3.92;;;;;;;;;;5095713;28;20205;-44
2023/07/03 09:11:44;;;;;;;7.00;3.83;;;;;;;;;;5096889;28;20282;-46
2023/07/03 09:14:18;;;;;;;7.97;4.75;;;;;;;;;;5095420;28;20284;-44
2023/07/03 09:16:47;;;;;;;11.07;4.72;;;;;;;;;;5095882;28;20217;-45
2023/07/03 09:19:17;;;;;;;10.43;4.40;;;;;;;;;;5096765;28;20198;-44
2023/07/03 09:21:45;;;;;;;13.93;4.88;;;;;;;;;;5095455;28;20735;-44
2023/07/03 09:24:20;;;;;;;9.32;4.35;;;;;;;;;;5096379;28;20245;-44
2023/07/03 09:26:52;;;;;;;13.43;5.18;;;;;;;;;;5096319;28;20206;-43
2023/07/03 09:29:19;;;;;;;7.88;4.28;;;;;;;;;;5096511;28;20681;-44
2023/07/03 09:31:47;;;;;;;12.30;4.55;;;;;;;;;;5094896;28;20230;-45
2023/07/03 09:34:16;;;;;;;8.02;4.20;;;;;;;;;;5096276;28;20301;-45
2023/07/03 09:36:43;;;;;;;10.52;4.20;;;;;;;;;;5095793;28;20202;-43
2023/07/03 09:39:17;;;;;;;15.30;4.60;;;;;;;;;;5095921;28;20206;-44
2023/07/03 09:41:45;;;;;;;7.05;3.92;;;;;;;;;;5096577;28;20204;-43
2023/07/03 09:44:15;;;;;;;9.20;4.28;;;;;;;;;;5096279;28;20199;-44
2023/07/03 09:46:44;;;;;;;12.40;3.80;;;;;;;;;;5094786;28;20277;-45
2023/07/03 09:49:22;;;;;;;8.35;4.30;;;;;;;;;;5094876;28;20206;-44
2023/07/03 09:51:51;;;;;;;8.00;4.00;;;;;;;;;;5095830;28;20223;-43
2023/07/03 09:54:23;;;;;;;11.18;4.88;;;;;;;;;;5095813;28;20244;-44
2023/07/03 09:56:51;;;;;;;8.02;4.00;;;;;;;;;;5094922;28;20264;-44
2023/07/03 09:59:21;;;;;;;8.82;4.28;;;;;;;;;;5095862;28;20202;-44
2023/07/03 10:01:55;;;;;;;9.30;4.25;;;;;;;;;;5095713;28;20206;-44
2023/07/03 10:04:30;;;;;;;12.23;4.82;;;;;;;;;;5095812;28;20231;-44
2023/07/03 10:07:04;;;;;;;10.23;4.95;;;;;;;;;;5095995;28;20190;-44
2023/07/03 10:09:34;;;;;;;7.50;4.45;;;;;;;;;;5094350;28;20191;-43
2023/07/03 10:12:11;;;;;;;12.00;5.07;;;;;;;;;;5094525;28;20231;-44
2023/07/03 10:15:02;;;;;;;8.98;4.00;;;;;;;;;;5094365;28;20194;-44
2023/07/03 10:17:35;;;;;;;8.32;4.75;;;;;;;;;;5095849;28;20210;-44
2023/07/03 10:20:09;;;;;;;9.40;4.43;;;;;;;;;;5095312;28;20195;-45
2023/07/03 10:22:38;;;;;;;9.38;4.53;;;;;;;;;;5094329;28;20202;-45
2023/07/03 10:25:08;;;;;;;7.38;4.15;;;;;;;;;;5093856;28;20661;-43
2023/07/03 10:27:36;;;;;;;16.65;4.55;;;;;;;;;;5094570;28;20191;-44
2023/07/03 10:30:05;;;;;;;11.48;4.22;;;;;;;;;;5094010;28;20198;-43
2023/07/03 10:32:34;;;;;;;10.13;4.38;;;;;;;;;;5092216;28;20233;-45
2023/07/03 10:35:32;;;;;;;6.95;4.20;;;;;;;;;;5093065;28;20209;-43
2023/07/03 10:38:09;;;;;;;8.43;4.15;;;;;;;;;;5093620;28;20272;-44
2023/07/03 10:40:41;;;;;;;11.18;5.07;;;;;;;;;;5094946;28;20206;-44
2023/07/03 10:43:11;;;;;;;12.93;4.65;;;;;;;;;;5095042;28;20206;-43
2023/07/03 10:45:38;;;;;;;11.18;4.93;;;;;;;;;;5093476;28;20647;-43
2023/07/03 10:48:13;;;;;;;9.65;4.78;;;;;;;;;;5093814;28;20203;-43
2023/07/03 10:50:42;;;;;;;10.25;4.45;;;;;;;;;;5094085;28;20206;-44
2023/07/03 10:53:15;;;;;;;10.32;4.05;;;;;;;;;;5094881;28;20205;-44
2023/07/03 10:55:45;;;;;;;9.23;4.32;;;;;;;;;;5095168;28;20214;-43
2023/07/03 10:58:12;;;;;;;6.95;3.78;;;;;;;;;;5094938;28;20198;-44
2023/07/03 11:01:08;;;;;;;9.48;4.32;;;;;;;;;;5094787;28;20210;-44
2023/07/03 11:04:03;;;;;;;9.30;4.10;;;;;;;;;;5094953;28;20199;-43
2023/07/03 11:07:10;;;;;;;11.30;4.53;;;;;;;;;;5094722;28;20204;-43
2023/07/03 11:09:47;;;;;;;13.85;4.22;;;;;;;;;;5093292;28;20577;-43
2023/07/03 11:12:32;;;;;;;8.38;4.63;;;;;;;;;;5094490;28;20226;-46
2023/07/03 11:15:00;;;;;;;10.07;4.40;;;;;;;;;;5088809;28;20203;-47
2023/07/03 11:17:39;;;;;;;7.43;3.90;;;;;;;;;;5095231;28;20233;-46
2023/07/03 11:20:36;;;;;;;8.32;4.60;;;;;;;;;;5079994;28;20203;-45
2023/07/03 11:23:16;;;;;;;8.65;4.00;;;;;;;;;;5091983;28;20183;-48
2023/07/03 11:25:52;;;;;;;11.45;4.10;;;;;;;;;;5093964;28;20182;-45
2023/07/03 11:28:31;;;;;;;10.00;4.70;;;;;;;;;;5082546;28;20226;-46
2023/07/03 11:31:00;;;;;;;11.57;4.20;;;;;;;;;;5089050;28;20600;-44
2023/07/03 11:33:29;;;;;;;7.38;4.38;;;;;;;;;;5088050;28;20223;-44
2023/07/03 11:36:40;;;;;;;9.25;4.03;;;;;;;;;;5071669;28;20231;-44
2023/07/03 11:39:15;;;;;;;8.95;4.47;;;;;;;;;;5090300;28;20222;-44
2023/07/03 11:41:53;;;;;;;11.10;4.13;;;;;;;;;;5091347;28;20336;-43
2023/07/03 11:44:47;;;;;;;7.75;4.38;;;;;;;;;;5072543;28;20219;-45
2023/07/03 11:47:24;;;;;;;7.95;4.15;;;;;;;;;;5070464;28;20234;-45
2023/07/03 11:49:54;;;;;;;10.38;4.30;;;;;;;;;;5070646;28;20234;-44
2023/07/03 11:52:49;;;;;;;8.13;4.03;;;;;;;;;;5078420;28;20234;-47
2023/07/03 11:55:20;;;;;;;9.30;4.47;;;;;;;;;;5087849;28;20233;-45
2023/07/03 11:57:55;;;;;;;11.68;4.53;;;;;;;;;;5089786;28;20309;-44
2023/07/03 12:00:42;;;;;;;8.85;4.20;;;;;;;;;;5090476;28;20234;-43
2023/07/03 12:03:10;;;;;;;7.07;3.85;;;;;;;;;;5092255;28;20238;-47
2023/07/03 12:05:44;;;;;;;11.13;4.50;;;;;;;;;;5092399;28;20430;-43
2023/07/03 12:08:17;;;;;;;13.48;4.38;;;;;;;;;;5092434;28;20230;-44
2023/07/03 12:10:52;;;;;;;10.43;4.50;;;;;;;;;;5092555;28;20229;-43
2023/07/03 12:13:28;;;;;;;7.40;4.30;;;;;;;;;;5080470;28;20227;-43
2023/07/03 12:15:57;;;;;;;11.23;5.00;;;;;;;;;;5072512;28;20235;-43
2023/07/03 12:18:24;;;;;;;10.57;4.65;;;;;;;;;;5089902;28;20226;-46
2023/07/03 12:21:17;;;;;;;7.60;4.20;;;;;;;;;;5073419;28;20227;-45
2023/07/03 12:23:45;;;;;;;7.15;3.75;;;;;;;;;;5076197;28;20238;-44
2023/07/03 12:26:16;;;;;;;9.95;5.20;;;;;;;;;;5091680;28;20246;-44
2023/07/03 12:28:44;;;;;;;8.20;4.25;;;;;;;;;;5092193;28;20230;-43
2023/07/03 12:31:18;;;;;;;9.65;4.70;;;;;;;;;;5091900;28;20219;-46
2023/07/03 12:33:51;;;;;;;7.22;4.28;;;;;;;;;;5092344;28;20229;-44
2023/07/03 12:36:44;;;;;;;8.60;4.15;;;;;;;;;;5091751;28;20234;-45
2023/07/03 12:39:20;;;;;;;11.43;4.32;;;;;;;;;;5092034;28;20707;-44
2023/07/03 12:41:47;;;;;;;10.82;4.20;;;;;;;;;;5090086;28;20715;-44
2023/07/03 12:44:15;;;;;;;8.45;4.10;;;;;;;;;;5092235;28;20223;-44
2023/07/03 12:46:45;;;;;;;12.18;4.35;;;;;;;;;;5092391;28;20626;-46
2023/07/03 12:49:15;;;;;;;9.35;4.43;;;;;;;;;;5092099;28;20226;-44
2023/07/03 12:51:49;;;;;;;8.98;4.75;;;;;;;;;;5092292;28;20253;-44
2023/07/03 12:54:17;;;;;;;9.85;4.50;;;;;;;;;;5092093;28;20607;-44
2023/07/03 12:56:44;;;;;;;6.53;4.13;;;;;;;;;;5091434;28;20223;-44
2023/07/03 12:59:16;;;;;;;10.70;4.35;;;;;;;;;;5090796;28;20729;-44
2023/07/03 13:01:49;;;;;;;13.05;4.28;;;;;;;;;;5092215;28;20778;-44
2023/07/03 13:04:28;;;;;;;9.48;4.30;;;;;;;;;;5092231;28;20234;-44
2023/07/03 13:06:56;;;;;;;7.63;4.10;;;;;;;;;;5092300;28;20225;-44
2023/07/03 13:09:25;;;;;;;9.63;4.10;;;;;;;;;;5090842;28;20271;-44
2023/07/03 13:11:52;;;;;;;20.55;4.05;;;;;;;;;;5092707;28;20234;-44
2023/07/03 13:14:21;;;;;;;6.63;3.88;;;;;;;;;;5076826;28;20585;-44
2023/07/03 13:17:00;;;;;;;9.27;4.30;;;;;;;;;;5075470;28;20229;-44
2023/07/03 13:19:33;;;;;;;12.50;3.95;;;;;;;;;;5074262;28;20235;-43
2023/07/03 13:22:08;;;;;;;6.05;3.83;;;;;;;;;;5095058;28;20242;-44
2023/07/03 13:24:50;;;;;;;10.55;3.90;;;;;;;;;;5094566;28;20242;-44
2023/07/03 13:27:25;;;;;;;8.30;3.40;;;;;;;;;;5094542;28;20283;-44
2023/07/03 13:30:13;;;;;;;7.45;3.67;;;;;;;;;;5095705;28;20226;-44
2023/07/03 13:32:55;;;;;;;6.55;3.47;;;;;;;;;;5095196;28;20234;-44
2023/07/03 13:35:36;;;;;;;5.03;3.45;;;;;;;;;;5095390;28;20339;-45
2023/07/03 13:38:19;;;;;;;4.93;3.20;;;;;;;;;;5086307;28;20281;-44
2023/07/03 13:40:51;;;;;;;6.32;3.58;;;;;;;;;;5074347;28;20223;-44
2023/07/03 13:43:20;;;;;;;6.43;3.00;;;;;;;;;;5094766;28;20313;-44
2023/07/03 13:45:50;;;;;;;7.47;3.67;;;;;;;;;;5095265;28;20725;-45
2023/07/03 13:48:17;;;;;;;15.88;3.92;;;;;;;;;;5094917;28;20227;-45
2023/07/03 13:50:45;;;;;;;7.25;3.70;;;;;;;;;;5095154;28;20222;-44
2023/07/03 13:53:12;;;;;;;6.68;3.13;;;;;;;;;;5094913;28;20230;-46
2023/07/03 13:55:39;;;;;;;4.80;3.13;;;;;;;;;;5094115;28;20219;-44
2023/07/03 13:58:06;;;;;;;5.85;2.60;;;;;;;;;;5094828;28;20222;-45
2023/07/03 14:00:34;;;;;;;5.82;3.15;;;;;;;;;;5094986;28;20226;-45
2023/07/03 14:03:01;;;;;;;4.25;3.28;;;;;;;;;;5094909;28;20227;-45
2023/07/03 14:05:28;;;;;;;3.53;2.70;;;;;;;;;;5094524;28;20326;-44
2023/07/03 14:07:57;;;;;;;4.10;2.80;;;;;;;;;;5094190;28;20248;-46
2023/07/03 14:10:24;;;;;;;4.78;2.78;;;;;;;;;;5094155;28;20226;-46
2023/07/03 14:12:52;;;;;;;4.95;2.85;;;;;;;;;;5094148;28;20238;-44
2023/07/03 14:15:27;;;;;;;8.82;2.83;;;;;;;;;;5093674;28;20215;-45
2023/07/03 14:17:54;;;;;;;8.68;2.83;;;;;;;;;;5094823;28;20225;-46
2023/07/03 14:20:22;;;;;;;7.97;3.00;;;;;;;;;;5094294;28;20257;-45
2023/07/03 14:22:49;;;;;;;4.60;2.97;;;;;;;;;;5094335;28;20246;-46
2023/07/03 14:25:17;;;;;;;8.48;3.13;;;;;;;;;;5093351;28;20288;-48
2023/07/03 14:27:44;;;;;;;5.18;2.92;;;;;;;;;;5092290;28;20623;-44
2023/07/03 14:30:12;;;;;;;9.77;3.40;;;;;;;;;;5076353;28;20228;-47
2023/07/03 14:32:39;;;;;;;7.82;2.88;;;;;;;;;;5093329;28;20663;-40
2023/07/03 14:35:23;;;;;;;4.47;2.67;;;;;;;;;;5094207;28;20234;-44
2023/07/03 14:37:50;;;;;;;11.65;2.83;;;;;;;;;;5094432;28;20305;-42
2023/07/03 14:40:17;;;;;;;13.95;3.15;;;;;;;;;;5074424;28;20712;-41
2023/07/03 14:42:45;;;;;;;5.93;3.03;;;;;;;;;;5079065;28;20709;-41
2023/07/03 14:45:13;;;;;;;5.82;3.20;;;;;;;;;;5093928;28;20233;-43
2023/07/03 14:47:40;;;;;;;6.00;3.38;;;;;;;;;;5094002;28;20607;-45
2023/07/03 14:50:09;;;;;;;6.80;3.08;;;;;;;;;;5094093;28;20296;-45
2023/07/03 14:52:39;;;;;;;19.10;4.00;;;;;;;;;;5094379;28;20214;-43
2023/07/03 14:55:06;;;;;;;6.55;3.55;;;;;;;;;;5093004;28;20226;-48
2023/07/03 14:57:33;;;;;;;7.57;3.28;;;;;;;;;;5093901;28;20229;-43
2023/07/03 15:00:01;;;;;;;17.40;4.38;;;;;;;;;;5093841;28;20222;-43